Time;durP1;ratioP1;P1;durP2;ratioP2;P2;SDS_P1;SDS_P2;PMS_P1;PMS_P2;Temp;Humidity;BMP_temperature;BMP_pressure;BME280_temperature;BME280_humidity;BME280_pressure;Samples;Min_cycle;Max_cycle;Signal;HPM_P1;HPM_P2
2024/04/09 00:11:38;;;;;;;7.10;5.00;;;;;;;19.83;79.02;99849.55;669571;1264;138827;-83
2024/04/09 00:26:42;;;;;;;7.40;4.70;;;;;;;19.92;78.08;99855.49;666376;1264;139673;-82
2024/04/09 00:41:47;;;;;;;9.20;5.40;;;;;;;19.63;77.87;99838.79;666792;1275;139581;-81
2024/04/09 00:56:51;;;;;;;13.60;8.10;;;;;;;19.27;78.21;99856.20;666738;1262;139173;-81
2024/04/09 01:11:55;;;;;;;17.60;10.20;;;;;;;19.08;79.33;99857.08;666407;1262;140323;-81
2024/04/09 01:26:58;;;;;;;14.70;6.90;;;;;;;18.91;80.24;99855.75;665902;1259;139922;-82
2024/04/09 01:42:03;;;;;;;13.80;6.40;;;;;;;18.56;80.15;99854.55;666165;1274;140277;-80
2024/04/09 01:57:06;;;;;;;10.30;6.50;;;;;;;17.90;80.35;99858.63;666820;1260;140054;-80
2024/04/09 02:12:09;;;;;;;9.60;6.20;;;;;;;17.39;81.68;99858.79;666277;1259;139845;-81
2024/04/09 02:27:13;;;;;;;14.80;7.00;;;;;;;16.89;82.98;99851.79;666624;1263;139673;-81
2024/04/09 02:42:16;;;;;;;11.30;6.80;;;;;;;16.55;83.70;99846.83;668327;1263;139682;-80
2024/04/09 02:57:19;;;;;;;23.80;11.40;;;;;;;16.27;84.67;99848.40;666953;1262;139677;-81
2024/04/09 03:12:22;;;;;;;20.20;10.90;;;;;;;15.17;89.30;99848.52;666601;1273;139282;-80
2024/04/09 03:27:26;;;;;;;34.10;13.70;;;;;;;14.82;91.90;99842.08;667428;1259;139389;-81
2024/04/09 03:42:29;;;;;;;40.40;18.20;;;;;;;15.94;86.72;99857.53;666968;1264;139552;-81
2024/04/09 03:57:33;;;;;;;16.50;9.30;;;;;;;15.90;86.49;99867.56;667205;1263;139300;-82
2024/04/09 04:12:36;;;;;;;28.70;15.10;;;;;;;15.78;86.70;99882.54;666246;1262;139318;-81
2024/04/09 04:27:44;;;;;;;47.00;23.30;;;;;;;15.64;87.15;99894.70;666033;1262;139621;-82
2024/04/09 04:42:48;;;;;;;30.30;16.80;;;;;;;15.58;87.27;99895.41;666574;1262;139802;-82
2024/04/09 04:57:52;;;;;;;45.80;22.80;;;;;;;15.84;87.92;99917.34;668513;1262;139509;-81
2024/04/09 05:12:55;;;;;;;14.90;9.00;;;;;;;16.10;87.81;99913.73;666799;1262;140328;-81
2024/04/09 05:27:58;;;;;;;15.90;10.10;;;;;;;16.91;87.47;99920.23;666541;1264;139322;-82
2024/04/09 05:43:01;;;;;;;15.70;10.60;;;;;;;17.65;85.89;99916.41;666583;1262;139472;-81
2024/04/09 05:58:07;;;;;;;15.70;8.00;;;;;;;19.18;85.20;99913.01;667320;1262;140320;-81
2024/04/09 06:13:19;;;;;;;14.30;8.60;;;;;;;21.00;82.24;99913.91;668229;1260;140967;-80
2024/04/09 06:28:29;;;;;;;;;;;;;;;21.87;78.56;99910.38;667825;1260;139841;-81
2024/04/09 06:43:32;;;;;;;15.50;10.00;;;;;;;22.98;76.42;99900.15;670371;1263;125511;-81
2024/04/09 06:58:35;;;;;;;10.70;6.60;;;;;;;23.96;77.80;99897.28;668546;1262;139817;-80
2024/04/09 07:13:39;;;;;;;7.40;5.10;;;;;;;24.47;76.45;99896.42;667202;1272;139445;-81
2024/04/09 07:28:43;;;;;;;8.30;4.40;;;;;;;24.50;73.44;99900.88;666635;1265;139792;-81
2024/04/09 07:43:47;;;;;;;6.20;4.50;;;;;;;24.63;71.14;99899.34;670040;1260;138111;-82
2024/04/09 07:58:50;;;;;;;5.50;4.30;;;;;;;25.29;69.97;99894.89;666819;1262;139397;-80
2024/04/09 08:13:53;;;;;;;5.50;3.90;;;;;;;25.68;67.35;99897.20;666184;1262;138646;-81
2024/04/09 08:28:57;;;;;;;8.70;4.70;;;;;;;25.22;65.77;99889.38;673437;1264;139169;-81
2024/04/09 08:44:03;;;;;;;9.10;3.60;;;;;;;26.04;65.67;99880.09;670921;1262;139007;-78
2024/04/09 08:59:07;;;;;;;7.20;3.80;;;;;;;26.60;63.81;99879.38;667068;1262;138238;-79
2024/04/09 09:14:11;;;;;;;8.60;4.80;;;;;;;27.30;63.85;99869.64;666606;1271;139779;-78
2024/04/09 09:29:15;;;;;;;7.20;3.50;;;;;;;27.49;62.73;99854.08;666577;1265;139293;-83
2024/04/09 09:44:18;;;;;;;4.30;3.30;;;;;;;28.03;62.46;99840.00;666627;1262;138664;-80
2024/04/09 09:59:24;;;;;;;6.50;3.70;;;;;;;28.26;61.20;99837.38;666893;1262;138538;-79
2024/04/09 10:14:37;;;;;;;9.90;4.50;;;;;;;28.38;61.76;99835.73;667650;1261;139137;-82
2024/04/09 10:29:50;;;;;;;4.90;4.10;;;;;;;28.23;61.30;99833.07;667765;1262;139030;-80
2024/04/09 10:44:56;;;;;;;8.60;6.30;;;;;;;29.78;58.75;99836.35;667320;1263;138759;-83
2024/04/09 11:00:15;;;;;;;11.10;4.90;;;;;;;30.02;58.13;99833.41;671763;1263;191732;-81
2024/04/09 11:15:25;;;;;;;12.00;5.60;;;;;;;29.40;58.80;99835.86;667754;1275;138549;-79
2024/04/09 11:30:31;;;;;;;6.20;4.20;;;;;;;29.02;58.45;99828.66;666030;1276;138909;-81
2024/04/09 11:45:35;;;;;;;7.90;4.60;;;;;;;28.89;58.07;99822.06;668595;1273;138249;-81
2024/04/09 12:00:39;;;;;;;7.70;4.60;;;;;;;29.04;57.57;99811.44;670381;1263;138600;-83
2024/04/09 12:15:45;;;;;;;10.20;4.80;;;;;;;29.17;57.51;99804.30;670105;1273;138347;-79
2024/04/09 12:30:48;;;;;;;12.40;4.20;;;;;;;29.14;56.50;99792.05;667671;1262;140007;-83
2024/04/09 12:45:52;;;;;;;7.00;3.90;;;;;;;29.13;55.22;99775.42;666512;1263;138535;-81
2024/04/09 13:00:56;;;;;;;5.90;3.20;;;;;;;29.42;54.81;99760.98;666767;1266;138959;-78
2024/04/09 13:16:11;;;;;;;6.70;3.40;;;;;;;28.99;54.68;99758.20;666624;1270;138582;-79
2024/04/09 13:31:18;;;;;;;8.50;3.60;;;;;;;28.90;54.27;99751.36;666115;1275;139454;-82
2024/04/09 13:46:22;;;;;;;8.50;3.20;;;;;;;28.97;54.25;99738.60;667077;1276;139046;-81
2024/04/09 14:01:25;;;;;;;12.40;3.50;;;;;;;28.90;54.68;99729.60;666901;1263;138960;-81
2024/04/09 14:16:29;;;;;;;13.00;6.90;;;;;;;28.69;54.21;99733.36;665878;1263;138437;-80
2024/04/09 14:31:32;;;;;;;5.30;3.00;;;;;;;28.71;54.41;99725.38;666871;1263;138333;-80
2024/04/09 14:46:35;;;;;;;5.80;3.40;;;;;;;28.65;54.41;99720.84;671175;1262;139085;-80
2024/04/09 15:01:39;;;;;;;16.20;4.30;;;;;;;28.33;54.92;99716.42;674246;1263;139855;-79
2024/04/09 16:21:05;;;;;;;124.10;59.40;;;;;;;26.13;64.95;99706.56;651901;1297;545701;-81
2024/04/09 16:36:14;;;;;;;39.90;25.90;;;;;;;26.33;63.69;99699.95;673123;1274;139190;-80
2024/04/09 16:51:17;;;;;;;13.70;7.50;;;;;;;25.74;65.50;99704.77;673643;1274;138535;-80
2024/04/09 17:06:21;;;;;;;12.00;8.50;;;;;;;24.93;67.25;99707.23;669412;1273;139059;-81
2024/04/09 17:21:25;;;;;;;28.00;8.70;;;;;;;24.01;69.19;99710.23;671290;1273;138490;-80
2024/04/09 17:36:28;;;;;;;18.10;8.20;;;;;;;23.26;69.57;99714.80;671085;1274;138628;-80
2024/04/09 17:51:32;;;;;;;26.50;14.40;;;;;;;22.72;70.45;99721.94;669126;1271;137758;-81
2024/04/09 18:06:35;;;;;;;91.10;40.20;;;;;;;22.23;71.02;99729.52;668572;1275;138902;-81
2024/04/09 18:21:38;;;;;;;18.60;9.30;;;;;;;21.89;71.79;99731.33;669620;1266;138590;-81
2024/04/09 18:36:42;;;;;;;22.90;14.10;;;;;;;21.91;71.52;99743.54;669887;1270;138659;-81
2024/04/09 18:51:45;;;;;;;14.10;7.70;;;;;;;21.75;71.91;99746.60;672839;1270;138898;-82
2024/04/09 19:06:48;;;;;;;15.70;8.60;;;;;;;21.81;72.12;99749.00;671073;1270;139648;-80
2024/04/09 19:21:52;;;;;;;26.90;12.10;;;;;;;21.72;71.71;99747.98;679240;1268;138738;-81
2024/04/09 19:36:55;;;;;;;11.60;9.10;;;;;;;21.57;71.89;99743.08;675414;1278;139756;-81
2024/04/09 19:51:59;;;;;;;10.30;7.10;;;;;;;21.23;72.71;99740.14;674600;1268;139783;-80
2024/04/09 20:07:03;;;;;;;11.50;6.90;;;;;;;20.88;73.39;99745.70;669595;1268;139809;-80
2024/04/09 20:22:07;;;;;;;12.80;6.00;;;;;;;20.80;73.42;99751.54;669850;1263;138714;-81
2024/04/09 20:37:13;;;;;;;7.80;5.40;;;;;;;20.88;73.03;99751.20;668492;1265;138717;-80
2024/04/09 20:52:16;;;;;;;13.90;6.10;;;;;;;20.98;72.56;99749.15;668038;1265;139766;-81
2024/04/09 21:07:20;;;;;;;10.00;6.30;;;;;;;20.96;72.02;99750.45;669015;1263;139163;-80
2024/04/09 21:22:23;;;;;;;16.50;7.70;;;;;;;20.70;72.62;99754.05;668845;1278;139707;-81
2024/04/09 21:37:27;;;;;;;10.50;7.40;;;;;;;20.49;73.10;99767.76;668852;1268;140083;-82
2024/04/09 21:52:30;;;;;;;10.70;6.50;;;;;;;20.29;73.15;99774.49;668623;1265;139555;-81
2024/04/09 22:07:33;;;;;;;19.30;11.10;;;;;;;19.95;73.31;99786.20;669273;1266;139185;-81
2024/04/09 22:22:36;;;;;;;18.00;10.00;;;;;;;19.58;74.02;99792.02;668351;1262;139885;-81
2024/04/09 22:37:39;;;;;;;39.20;19.60;;;;;;;19.16;74.55;99791.24;675286;1265;139819;-82
2024/04/09 22:52:44;;;;;;;17.50;8.80;;;;;;;18.61;75.51;99801.24;673411;1265;139466;-80
2024/04/09 23:07:47;;;;;;;18.30;8.80;;;;;;;18.27;76.32;99804.96;668297;1265;138726;-81
2024/04/09 23:22:51;;;;;;;16.30;9.70;;;;;;;17.90;76.18;99820.14;668026;1278;138839;-81
2024/04/09 23:37:54;;;;;;;15.40;10.10;;;;;;;17.51;77.06;99822.30;669377;1265;138818;-81
2024/04/09 23:52:57;;;;;;;19.50;10.80;;;;;;;17.20;79.42;99856.64;669511;1265;142188;-82
